sensor_id;sensor_type;location;lat;lon;timestamp;temperature;humidity
37844;DHT22;63793;57.632;18.292;2023-04-01T00:01:16;-0.10;99.90
37844;DHT22;63793;57.632;18.292;2023-04-01T00:03:44;-0.10;99.90
37844;DHT22;63793;57.632;18.292;2023-04-01T00:06:16;-0.10;99.90
37844;DHT22;63793;57.632;18.292;2023-04-01T00:08:44;-0.20;99.90
37844;DHT22;63793;57.632;18.292;2023-04-01T00:11:11;-0.20;99.90
37844;DHT22;63793;57.632;18.292;2023-04-01T00:13:38;-0.20;99.90
37844;DHT22;63793;57.632;18.292;2023-04-01T00:16:07;-0.20;99.90
37844;DHT22;63793;57.632;18.292;2023-04-01T00:18:47;-0.30;99.90
37844;DHT22;63793;57.632;18.292;2023-04-01T00:21:14;-0.30;99.90
37844;DHT22;63793;57.632;18.292;2023-04-01T00:23:41;-0.30;99.90
37844;DHT22;63793;57.632;18.292;2023-04-01T00:26:08;-0.30;99.90
37844;DHT22;63793;57.632;18.292;2023-04-01T00:28:37;-0.30;99.90
37844;DHT22;63793;57.632;18.292;2023-04-01T00:31:05;-0.30;99.90
37844;DHT22;63793;57.632;18.292;2023-04-01T00:33:33;-0.30;99.90
37844;DHT22;63793;57.632;18.292;2023-04-01T00:36:11;-0.40;99.90
37844;DHT22;63793;57.632;18.292;2023-04-01T00:38:39;-0.40;99.90
37844;DHT22;63793;57.632;18.292;2023-04-01T00:41:09;-0.40;99.90
37844;DHT22;63793;57.632;18.292;2023-04-01T00:43:46;-0.50;99.90
37844;DHT22;63793;57.632;18.292;2023-04-01T00:46:13;-0.50;99.90
37844;DHT22;63793;57.632;18.292;2023-04-01T00:48:44;-0.50;99.90
37844;DHT22;63793;57.632;18.292;2023-04-01T00:51:18;-0.50;99.90
37844;DHT22;63793;57.632;18.292;2023-04-01T00:53:49;-0.50;99.90
37844;DHT22;63793;57.632;18.292;2023-04-01T00:56:21;-0.50;99.90
37844;DHT22;63793;57.632;18.292;2023-04-01T00:59:06;-0.50;99.90
37844;DHT22;63793;57.632;18.292;2023-04-01T01:01:35;-0.60;99.90
37844;DHT22;63793;57.632;18.292;2023-04-01T01:04:03;-0.60;99.90
37844;DHT22;63793;57.632;18.292;2023-04-01T01:12:53;-0.60;99.90
37844;DHT22;63793;57.632;18.292;2023-04-01T01:15:34;-0.60;99.90
37844;DHT22;63793;57.632;18.292;2023-04-01T01:18:40;-0.70;99.90
37844;DHT22;63793;57.632;18.292;2023-04-01T01:26:38;-0.70;99.90
37844;DHT22;63793;57.632;18.292;2023-04-01T01:35:09;-0.80;99.90
37844;DHT22;63793;57.632;18.292;2023-04-01T01:37:39;-0.80;99.90
37844;DHT22;63793;57.632;18.292;2023-04-01T01:40:09;-0.80;99.90
37844;DHT22;63793;57.632;18.292;2023-04-01T01:42:41;-0.80;99.90
37844;DHT22;63793;57.632;18.292;2023-04-01T01:45:13;-0.80;99.90
37844;DHT22;63793;57.632;18.292;2023-04-01T01:47:41;-0.80;99.90
37844;DHT22;63793;57.632;18.292;2023-04-01T01:50:10;-0.80;99.90
37844;DHT22;63793;57.632;18.292;2023-04-01T01:52:38;-0.90;99.90
37844;DHT22;63793;57.632;18.292;2023-04-01T01:55:29;-0.90;99.90
37844;DHT22;63793;57.632;18.292;2023-04-01T01:58:16;-0.90;99.90
37844;DHT22;63793;57.632;18.292;2023-04-01T02:00:54;-0.90;99.90
37844;DHT22;63793;57.632;18.292;2023-04-01T02:03:24;-0.90;99.90
37844;DHT22;63793;57.632;18.292;2023-04-01T02:05:55;-0.90;99.90
37844;DHT22;63793;57.632;18.292;2023-04-01T02:09:12;-0.90;99.90
37844;DHT22;63793;57.632;18.292;2023-04-01T02:11:41;-0.90;99.90
37844;DHT22;63793;57.632;18.292;2023-04-01T02:14:17;-0.90;99.90
37844;DHT22;63793;57.632;18.292;2023-04-01T02:20:10;-0.90;99.90
37844;DHT22;63793;57.632;18.292;2023-04-01T02:22:14;-1.00;99.90
37844;DHT22;63793;57.632;18.292;2023-04-01T02:24:43;-1.00;99.90
37844;DHT22;63793;57.632;18.292;2023-04-01T02:27:12;-1.00;99.90
37844;DHT22;63793;57.632;18.292;2023-04-01T02:29:39;-1.00;99.90
37844;DHT22;63793;57.632;18.292;2023-04-01T02:32:08;-1.00;99.90
37844;DHT22;63793;57.632;18.292;2023-04-01T02:34:36;-1.00;99.90
37844;DHT22;63793;57.632;18.292;2023-04-01T02:37:03;-1.00;99.90
37844;DHT22;63793;57.632;18.292;2023-04-01T02:39:31;-1.00;99.90
37844;DHT22;63793;57.632;18.292;2023-04-01T02:41:58;-1.00;99.90
37844;DHT22;63793;57.632;18.292;2023-04-01T02:44:25;-1.00;99.90
37844;DHT22;63793;57.632;18.292;2023-04-01T02:46:51;-1.00;99.90
37844;DHT22;63793;57.632;18.292;2023-04-01T02:49:19;-1.00;99.90
37844;DHT22;63793;57.632;18.292;2023-04-01T02:51:46;-1.00;99.90
37844;DHT22;63793;57.632;18.292;2023-04-01T02:54:13;-0.90;99.90
37844;DHT22;63793;57.632;18.292;2023-04-01T02:56:41;-1.00;99.90
37844;DHT22;63793;57.632;18.292;2023-04-01T02:59:08;-1.00;99.90
37844;DHT22;63793;57.632;18.292;2023-04-01T03:01:35;-0.90;99.90
37844;DHT22;63793;57.632;18.292;2023-04-01T03:04:02;-1.00;99.90
37844;DHT22;63793;57.632;18.292;2023-04-01T03:06:29;-1.00;99.90
37844;DHT22;63793;57.632;18.292;2023-04-01T03:08:56;-0.90;99.90
37844;DHT22;63793;57.632;18.292;2023-04-01T03:11:23;-0.90;99.90
37844;DHT22;63793;57.632;18.292;2023-04-01T03:13:50;-0.90;99.90
37844;DHT22;63793;57.632;18.292;2023-04-01T03:16:17;-1.00;99.90
37844;DHT22;63793;57.632;18.292;2023-04-01T03:18:44;-1.00;99.90
37844;DHT22;63793;57.632;18.292;2023-04-01T03:21:19;-1.00;99.90
37844;DHT22;63793;57.632;18.292;2023-04-01T03:23:47;-1.00;99.90
37844;DHT22;63793;57.632;18.292;2023-04-01T03:26:14;-1.00;99.90
37844;DHT22;63793;57.632;18.292;2023-04-01T03:28:42;-1.00;99.90
37844;DHT22;63793;57.632;18.292;2023-04-01T03:31:09;-1.00;99.90
37844;DHT22;63793;57.632;18.292;2023-04-01T03:33:42;-1.00;99.90
37844;DHT22;63793;57.632;18.292;2023-04-01T03:36:10;-1.00;99.90
37844;DHT22;63793;57.632;18.292;2023-04-01T03:38:43;-1.00;99.90
37844;DHT22;63793;57.632;18.292;2023-04-01T03:41:14;-1.00;99.90
37844;DHT22;63793;57.632;18.292;2023-04-01T03:43:42;-1.00;99.90
37844;DHT22;63793;57.632;18.292;2023-04-01T03:46:10;-1.00;99.90
37844;DHT22;63793;57.632;18.292;2023-04-01T03:48:37;-1.00;99.90
37844;DHT22;63793;57.632;18.292;2023-04-01T03:51:07;-1.00;99.90
37844;DHT22;63793;57.632;18.292;2023-04-01T03:53:35;-0.90;99.90
37844;DHT22;63793;57.632;18.292;2023-04-01T03:56:08;-1.00;99.90
37844;DHT22;63793;57.632;18.292;2023-04-01T03:58:36;-1.00;99.90
37844;DHT22;63793;57.632;18.292;2023-04-01T04:01:15;-1.00;99.90
37844;DHT22;63793;57.632;18.292;2023-04-01T04:03:42;-0.90;99.90
37844;DHT22;63793;57.632;18.292;2023-04-01T04:06:12;-0.90;99.90
37844;DHT22;63793;57.632;18.292;2023-04-01T04:08:39;-0.90;99.90
37844;DHT22;63793;57.632;18.292;2023-04-01T04:11:07;-0.90;99.90
37844;DHT22;63793;57.632;18.292;2023-04-01T04:13:37;-0.90;99.90
37844;DHT22;63793;57.632;18.292;2023-04-01T04:16:04;-1.00;99.90
37844;DHT22;63793;57.632;18.292;2023-04-01T04:18:32;-0.90;99.90
37844;DHT22;63793;57.632;18.292;2023-04-01T04:20:59;-0.90;99.90
37844;DHT22;63793;57.632;18.292;2023-04-01T04:23:26;-0.90;99.90
37844;DHT22;63793;57.632;18.292;2023-04-01T04:26:04;-0.90;99.90
37844;DHT22;63793;57.632;18.292;2023-04-01T04:28:32;-0.90;99.90
37844;DHT22;63793;57.632;18.292;2023-04-01T04:31:00;-0.80;99.90
37844;DHT22;63793;57.632;18.292;2023-04-01T04:33:27;-0.80;99.90
37844;DHT22;63793;57.632;18.292;2023-04-01T04:35:56;-0.80;99.90
37844;DHT22;63793;57.632;18.292;2023-04-01T04:38:23;-0.80;99.90
37844;DHT22;63793;57.632;18.292;2023-04-01T04:40:50;-0.80;99.90
37844;DHT22;63793;57.632;18.292;2023-04-01T04:43:18;-0.80;99.90
37844;DHT22;63793;57.632;18.292;2023-04-01T04:45:46;-0.80;99.90
37844;DHT22;63793;57.632;18.292;2023-04-01T04:48:15;-0.80;99.90
37844;DHT22;63793;57.632;18.292;2023-04-01T04:50:46;-0.80;99.90
37844;DHT22;63793;57.632;18.292;2023-04-01T04:53:14;-0.80;99.90
37844;DHT22;63793;57.632;18.292;2023-04-01T04:55:45;-0.70;99.90
37844;DHT22;63793;57.632;18.292;2023-04-01T04:58:30;-0.70;99.90
37844;DHT22;63793;57.632;18.292;2023-04-01T05:00:58;-0.70;99.90
37844;DHT22;63793;57.632;18.292;2023-04-01T05:03:29;-0.60;99.90
37844;DHT22;63793;57.632;18.292;2023-04-01T05:05:57;-0.60;99.90
37844;DHT22;63793;57.632;18.292;2023-04-01T05:08:23;-0.60;99.90
37844;DHT22;63793;57.632;18.292;2023-04-01T05:10:51;-0.60;99.90
37844;DHT22;63793;57.632;18.292;2023-04-01T05:13:17;-0.60;99.90
37844;DHT22;63793;57.632;18.292;2023-04-01T05:15:46;-0.60;99.90
37844;DHT22;63793;57.632;18.292;2023-04-01T05:18:13;-0.50;99.90
37844;DHT22;63793;57.632;18.292;2023-04-01T05:20:46;-0.50;99.90
37844;DHT22;63793;57.632;18.292;2023-04-01T05:23:13;-0.40;99.90
37844;DHT22;63793;57.632;18.292;2023-04-01T05:25:40;-0.40;99.90
37844;DHT22;63793;57.632;18.292;2023-04-01T05:28:07;-0.40;99.90
37844;DHT22;63793;57.632;18.292;2023-04-01T05:30:34;-0.30;99.90
37844;DHT22;63793;57.632;18.292;2023-04-01T05:33:37;-0.20;99.90
37844;DHT22;63793;57.632;18.292;2023-04-01T05:36:15;-0.20;99.90
37844;DHT22;63793;57.632;18.292;2023-04-01T05:38:43;-0.20;99.90
37844;DHT22;63793;57.632;18.292;2023-04-01T05:41:13;-0.10;99.90
37844;DHT22;63793;57.632;18.292;2023-04-01T05:43:43;-0.10;99.90
37844;DHT22;63793;57.632;18.292;2023-04-01T05:46:31;-0.10;99.90
37844;DHT22;63793;57.632;18.292;2023-04-01T05:49:07;0.00;99.90
37844;DHT22;63793;57.632;18.292;2023-04-01T05:51:34;0.00;99.90
37844;DHT22;63793;57.632;18.292;2023-04-01T05:54:01;0.00;99.90
37844;DHT22;63793;57.632;18.292;2023-04-01T05:56:30;0.10;99.90
37844;DHT22;63793;57.632;18.292;2023-04-01T05:58:58;0.10;99.90
37844;DHT22;63793;57.632;18.292;2023-04-01T06:01:25;0.10;99.90
37844;DHT22;63793;57.632;18.292;2023-04-01T06:03:52;0.20;99.90
37844;DHT22;63793;57.632;18.292;2023-04-01T06:06:25;0.20;99.90
37844;DHT22;63793;57.632;18.292;2023-04-01T06:09:14;0.30;99.90
37844;DHT22;63793;57.632;18.292;2023-04-01T06:23:35;0.50;99.90
37844;DHT22;63793;57.632;18.292;2023-04-01T06:26:33;0.50;99.90
37844;DHT22;63793;57.632;18.292;2023-04-01T06:55:32;0.90;99.90
37844;DHT22;63793;57.632;18.292;2023-04-01T06:58:25;1.00;99.90
37844;DHT22;63793;57.632;18.292;2023-04-01T07:00:57;1.00;99.90
37844;DHT22;63793;57.632;18.292;2023-04-01T07:03:49;1.10;99.90
37844;DHT22;63793;57.632;18.292;2023-04-01T07:06:27;1.10;99.90
37844;DHT22;63793;57.632;18.292;2023-04-01T07:08:59;1.20;99.90
37844;DHT22;63793;57.632;18.292;2023-04-01T07:11:50;1.20;99.90
37844;DHT22;63793;57.632;18.292;2023-04-01T07:14:41;1.20;99.90
37844;DHT22;63793;57.632;18.292;2023-04-01T07:17:23;1.20;99.90
37844;DHT22;63793;57.632;18.292;2023-04-01T07:20:03;1.20;99.90
37844;DHT22;63793;57.632;18.292;2023-04-01T07:22:35;1.30;99.90
37844;DHT22;63793;57.632;18.292;2023-04-01T07:25:34;1.30;99.90
37844;DHT22;63793;57.632;18.292;2023-04-01T07:28:40;1.40;99.90
37844;DHT22;63793;57.632;18.292;2023-04-01T07:34:03;1.50;99.90
37844;DHT22;63793;57.632;18.292;2023-04-01T07:36:33;1.50;99.90
37844;DHT22;63793;57.632;18.292;2023-04-01T07:42:16;1.60;99.90
37844;DHT22;63793;57.632;18.292;2023-04-01T07:50:15;1.60;99.90
37844;DHT22;63793;57.632;18.292;2023-04-01T08:07:25;1.90;99.90
37844;DHT22;63793;57.632;18.292;2023-04-01T08:14:00;2.00;99.90
37844;DHT22;63793;57.632;18.292;2023-04-01T08:23:05;2.10;99.90
37844;DHT22;63793;57.632;18.292;2023-04-01T08:25:40;2.20;99.90
37844;DHT22;63793;57.632;18.292;2023-04-01T08:28:24;2.20;99.90
37844;DHT22;63793;57.632;18.292;2023-04-01T08:30:58;2.20;99.90
37844;DHT22;63793;57.632;18.292;2023-04-01T08:33:30;2.20;99.90
37844;DHT22;63793;57.632;18.292;2023-04-01T08:36:18;2.30;99.90
37844;DHT22;63793;57.632;18.292;2023-04-01T08:42:35;2.30;99.90
37844;DHT22;63793;57.632;18.292;2023-04-01T08:51:03;2.30;99.90
37844;DHT22;63793;57.632;18.292;2023-04-01T09:08:14;2.80;99.90
37844;DHT22;63793;57.632;18.292;2023-04-01T09:11:22;2.80;99.90
37844;DHT22;63793;57.632;18.292;2023-04-01T09:32:26;3.00;99.90
37844;DHT22;63793;57.632;18.292;2023-04-01T09:40:54;3.10;99.90
37844;DHT22;63793;57.632;18.292;2023-04-01T09:46:11;3.30;99.90
37844;DHT22;63793;57.632;18.292;2023-04-01T09:52:01;3.40;99.90
37844;DHT22;63793;57.632;18.292;2023-04-01T09:54:52;3.40;99.90
37844;DHT22;63793;57.632;18.292;2023-04-01T10:01:36;3.50;99.90
37844;DHT22;63793;57.632;18.292;2023-04-01T10:04:35;3.60;99.90
37844;DHT22;63793;57.632;18.292;2023-04-01T10:12:58;3.50;99.90
37844;DHT22;63793;57.632;18.292;2023-04-01T10:18:26;3.50;99.90
37844;DHT22;63793;57.632;18.292;2023-04-01T10:32:29;3.80;99.90
37844;DHT22;63793;57.632;18.292;2023-04-01T10:47:08;4.30;99.90
37844;DHT22;63793;57.632;18.292;2023-04-01T10:56:34;4.30;99.90
37844;DHT22;63793;57.632;18.292;2023-04-01T11:16:36;4.50;99.90
37844;DHT22;63793;57.632;18.292;2023-04-01T11:19:34;4.70;99.90
37844;DHT22;63793;57.632;18.292;2023-04-01T11:31:20;4.00;99.90
37844;DHT22;63793;57.632;18.292;2023-04-01T11:37:17;4.00;99.90
37844;DHT22;63793;57.632;18.292;2023-04-01T11:40:35;4.00;99.90
37844;DHT22;63793;57.632;18.292;2023-04-01T11:46:38;4.20;99.90
37844;DHT22;63793;57.632;18.292;2023-04-01T12:00:45;4.00;99.90
37844;DHT22;63793;57.632;18.292;2023-04-01T12:03:35;4.10;99.90
37844;DHT22;63793;57.632;18.292;2023-04-01T12:06:32;4.00;99.90
37844;DHT22;63793;57.632;18.292;2023-04-01T12:09:21;4.00;99.90
37844;DHT22;63793;57.632;18.292;2023-04-01T12:26:04;4.10;99.90
37844;DHT22;63793;57.632;18.292;2023-04-01T12:29:18;4.20;99.90
37844;DHT22;63793;57.632;18.292;2023-04-01T12:40:14;4.40;99.90
37844;DHT22;63793;57.632;18.292;2023-04-01T12:52:00;4.50;99.90
37844;DHT22;63793;57.632;18.292;2023-04-01T12:54:55;4.70;99.90
37844;DHT22;63793;57.632;18.292;2023-04-01T13:11:20;4.60;99.90
37844;DHT22;63793;57.632;18.292;2023-04-01T13:20:40;4.70;99.90
37844;DHT22;63793;57.632;18.292;2023-04-01T13:26:53;5.10;99.90
37844;DHT22;63793;57.632;18.292;2023-04-01T13:29:48;5.20;99.90
37844;DHT22;63793;57.632;18.292;2023-04-01T13:33:10;5.20;99.90
37844;DHT22;63793;57.632;18.292;2023-04-01T13:44:49;4.70;99.90
37844;DHT22;63793;57.632;18.292;2023-04-01T13:53:08;4.90;99.90
37844;DHT22;63793;57.632;18.292;2023-04-01T14:01:40;5.00;99.90
37844;DHT22;63793;57.632;18.292;2023-04-01T14:07:12;5.20;99.90
37844;DHT22;63793;57.632;18.292;2023-04-01T14:12:27;5.60;99.90
37844;DHT22;63793;57.632;18.292;2023-04-01T14:15:15;5.60;99.90
37844;DHT22;63793;57.632;18.292;2023-04-01T14:23:35;5.60;99.90
37844;DHT22;63793;57.632;18.292;2023-04-01T14:26:33;5.60;99.90
37844;DHT22;63793;57.632;18.292;2023-04-01T14:32:18;5.70;99.90
37844;DHT22;63793;57.632;18.292;2023-04-01T14:40:27;5.80;99.90
37844;DHT22;63793;57.632;18.292;2023-04-01T14:43:03;5.70;99.90
37844;DHT22;63793;57.632;18.292;2023-04-01T14:48:38;5.50;99.90
37844;DHT22;63793;57.632;18.292;2023-04-01T14:51:44;5.60;99.90
37844;DHT22;63793;57.632;18.292;2023-04-01T14:56:43;5.80;99.90
37844;DHT22;63793;57.632;18.292;2023-04-01T15:16:17;5.90;99.90
37844;DHT22;63793;57.632;18.292;2023-04-01T15:19:14;5.90;99.90
37844;DHT22;63793;57.632;18.292;2023-04-01T15:21:50;5.90;99.90
37844;DHT22;63793;57.632;18.292;2023-04-01T15:24:25;5.90;99.90
37844;DHT22;63793;57.632;18.292;2023-04-01T15:32:37;5.90;99.90
37844;DHT22;63793;57.632;18.292;2023-04-01T15:37:59;5.60;99.90
37844;DHT22;63793;57.632;18.292;2023-04-01T15:40:43;5.50;99.90
37844;DHT22;63793;57.632;18.292;2023-04-01T15:45:58;5.40;99.90
37844;DHT22;63793;57.632;18.292;2023-04-01T15:59:57;5.50;99.90
37844;DHT22;63793;57.632;18.292;2023-04-01T16:03:09;5.30;99.90
37844;DHT22;63793;57.632;18.292;2023-04-01T16:09:02;5.00;99.90
37844;DHT22;63793;57.632;18.292;2023-04-01T16:19:58;4.80;99.90
37844;DHT22;63793;57.632;18.292;2023-04-01T16:22:37;4.90;99.90
37844;DHT22;63793;57.632;18.292;2023-04-01T16:25:14;5.10;99.90
37844;DHT22;63793;57.632;18.292;2023-04-01T16:28:31;5.30;99.90
37844;DHT22;63793;57.632;18.292;2023-04-01T16:31:08;5.40;99.90
37844;DHT22;63793;57.632;18.292;2023-04-01T16:47:31;5.90;99.90
37844;DHT22;63793;57.632;18.292;2023-04-01T16:50:17;5.90;99.90
37844;DHT22;63793;57.632;18.292;2023-04-01T16:53:02;5.80;99.90
37844;DHT22;63793;57.632;18.292;2023-04-01T16:58:37;5.70;99.90
37844;DHT22;63793;57.632;18.292;2023-04-01T17:01:29;5.40;99.90
37844;DHT22;63793;57.632;18.292;2023-04-01T17:04:26;5.00;99.90
37844;DHT22;63793;57.632;18.292;2023-04-01T17:10:13;4.20;99.90
37844;DHT22;63793;57.632;18.292;2023-04-01T17:13:24;3.80;99.90
37844;DHT22;63793;57.632;18.292;2023-04-01T17:30:10;3.00;99.90
37844;DHT22;63793;57.632;18.292;2023-04-01T17:35:39;2.80;99.90
37844;DHT22;63793;57.632;18.292;2023-04-01T17:49:39;2.50;99.90
37844;DHT22;63793;57.632;18.292;2023-04-01T17:52:39;2.50;99.90
37844;DHT22;63793;57.632;18.292;2023-04-01T18:01:21;2.20;99.90
37844;DHT22;63793;57.632;18.292;2023-04-01T18:22:47;2.00;99.90
37844;DHT22;63793;57.632;18.292;2023-04-01T18:25:28;2.00;99.90
37844;DHT22;63793;57.632;18.292;2023-04-01T18:28:25;2.00;99.90
37844;DHT22;63793;57.632;18.292;2023-04-01T18:33:50;2.00;99.90
37844;DHT22;63793;57.632;18.292;2023-04-01T18:39:02;1.90;99.90
37844;DHT22;63793;57.632;18.292;2023-04-01T18:41:40;1.90;99.90
37844;DHT22;63793;57.632;18.292;2023-04-01T18:44:34;1.80;99.90
37844;DHT22;63793;57.632;18.292;2023-04-01T18:47:23;1.70;99.90
37844;DHT22;63793;57.632;18.292;2023-04-01T18:53:08;1.70;99.90
37844;DHT22;63793;57.632;18.292;2023-04-01T18:55:40;1.70;99.90
37844;DHT22;63793;57.632;18.292;2023-04-01T18:58:19;1.70;99.90
37844;DHT22;63793;57.632;18.292;2023-04-01T19:01:01;1.70;99.90
37844;DHT22;63793;57.632;18.292;2023-04-01T19:03:43;1.70;99.90
37844;DHT22;63793;57.632;18.292;2023-04-01T19:06:22;1.70;99.90
37844;DHT22;63793;57.632;18.292;2023-04-01T19:08:51;1.70;99.90
37844;DHT22;63793;57.632;18.292;2023-04-01T19:11:47;1.60;99.90
37844;DHT22;63793;57.632;18.292;2023-04-01T19:20:22;1.60;99.90
37844;DHT22;63793;57.632;18.292;2023-04-01T19:23:38;1.50;99.90
37844;DHT22;63793;57.632;18.292;2023-04-01T19:26:14;1.50;99.90
37844;DHT22;63793;57.632;18.292;2023-04-01T19:31:43;1.50;99.90
37844;DHT22;63793;57.632;18.292;2023-04-01T19:39:52;1.40;99.90
37844;DHT22;63793;57.632;18.292;2023-04-01T19:59:28;1.30;99.90
37844;DHT22;63793;57.632;18.292;2023-04-01T20:01:49;1.20;99.90
37844;DHT22;63793;57.632;18.292;2023-04-01T20:04:29;1.20;99.90
37844;DHT22;63793;57.632;18.292;2023-04-01T20:10:02;1.20;99.90
37844;DHT22;63793;57.632;18.292;2023-04-01T20:12:47;1.10;99.90
37844;DHT22;63793;57.632;18.292;2023-04-01T20:15:37;1.10;99.90
37844;DHT22;63793;57.632;18.292;2023-04-01T20:18:31;1.10;99.90
37844;DHT22;63793;57.632;18.292;2023-04-01T20:21:05;1.10;99.90
37844;DHT22;63793;57.632;18.292;2023-04-01T20:23:50;1.10;99.90
37844;DHT22;63793;57.632;18.292;2023-04-01T20:26:30;1.00;99.90
37844;DHT22;63793;57.632;18.292;2023-04-01T20:29:35;1.00;99.90
37844;DHT22;63793;57.632;18.292;2023-04-01T20:32:25;1.00;99.90
37844;DHT22;63793;57.632;18.292;2023-04-01T20:35:13;1.00;99.90
37844;DHT22;63793;57.632;18.292;2023-04-01T20:38:19;1.00;99.90
37844;DHT22;63793;57.632;18.292;2023-04-01T20:40:57;1.00;99.90
37844;DHT22;63793;57.632;18.292;2023-04-01T20:44:52;1.00;99.90
37844;DHT22;63793;57.632;18.292;2023-04-01T20:47:18;0.90;99.90
37844;DHT22;63793;57.632;18.292;2023-04-01T20:50:29;0.90;99.90
37844;DHT22;63793;57.632;18.292;2023-04-01T20:53:05;0.90;99.90
37844;DHT22;63793;57.632;18.292;2023-04-01T21:06:54;0.90;99.90
37844;DHT22;63793;57.632;18.292;2023-04-01T21:12:26;0.80;99.90
37844;DHT22;63793;57.632;18.292;2023-04-01T21:15:29;0.80;99.90
37844;DHT22;63793;57.632;18.292;2023-04-01T21:54:05;0.70;99.90
37844;DHT22;63793;57.632;18.292;2023-04-01T21:56:55;0.70;99.90
37844;DHT22;63793;57.632;18.292;2023-04-01T22:05:07;0.70;99.90
37844;DHT22;63793;57.632;18.292;2023-04-01T22:10:44;0.70;99.90
37844;DHT22;63793;57.632;18.292;2023-04-01T22:13:20;0.70;99.90
37844;DHT22;63793;57.632;18.292;2023-04-01T22:19:21;0.70;99.90
37844;DHT22;63793;57.632;18.292;2023-04-01T22:30:12;0.70;99.90
37844;DHT22;63793;57.632;18.292;2023-04-01T22:32:52;0.70;99.90
37844;DHT22;63793;57.632;18.292;2023-04-01T22:38:16;0.70;99.90
37844;DHT22;63793;57.632;18.292;2023-04-01T22:41:09;0.70;99.90
37844;DHT22;63793;57.632;18.292;2023-04-01T22:43:42;0.70;99.90
37844;DHT22;63793;57.632;18.292;2023-04-01T22:49:12;0.70;99.90
37844;DHT22;63793;57.632;18.292;2023-04-01T22:51:51;0.70;99.90
37844;DHT22;63793;57.632;18.292;2023-04-01T23:00:22;0.70;99.90
37844;DHT22;63793;57.632;18.292;2023-04-01T23:03:22;0.70;99.90
37844;DHT22;63793;57.632;18.292;2023-04-01T23:05:52;0.70;99.90
37844;DHT22;63793;57.632;18.292;2023-04-01T23:08:51;0.70;99.90
37844;DHT22;63793;57.632;18.292;2023-04-01T23:11:49;0.70;99.90
37844;DHT22;63793;57.632;18.292;2023-04-01T23:20:12;0.70;99.90
37844;DHT22;63793;57.632;18.292;2023-04-01T23:23:14;0.70;99.90
37844;DHT22;63793;57.632;18.292;2023-04-01T23:25:50;0.70;99.90
37844;DHT22;63793;57.632;18.292;2023-04-01T23:28:35;0.70;99.90
37844;DHT22;63793;57.632;18.292;2023-04-01T23:36:30;0.70;99.90
37844;DHT22;63793;57.632;18.292;2023-04-01T23:39:02;0.70;99.90
37844;DHT22;63793;57.632;18.292;2023-04-01T23:41:31;0.70;99.90
37844;DHT22;63793;57.632;18.292;2023-04-01T23:44:09;0.70;99.90
37844;DHT22;63793;57.632;18.292;2023-04-01T23:46:39;0.70;99.90
37844;DHT22;63793;57.632;18.292;2023-04-01T23:49:14;0.60;99.90
37844;DHT22;63793;57.632;18.292;2023-04-01T23:54:29;0.60;99.90
37844;DHT22;63793;57.632;18.292;2023-04-01T23:56:57;0.60;99.90
37844;DHT22;63793;57.632;18.292;2023-04-01T23:59:33;0.60;99.90
